createdAt,value
2017-04-11T00:00:42.936Z,101167
2017-04-11T00:01:42.440Z,101163
2017-04-11T00:02:42.535Z,101166
2017-04-11T00:03:42.495Z,101163
2017-04-11T00:04:43.082Z,101167
2017-04-11T00:05:42.908Z,101166
2017-04-11T00:06:42.679Z,101166
2017-04-11T00:07:43.271Z,101165
2017-04-11T00:08:42.701Z,101162
2017-04-11T00:09:43.269Z,101163
2017-04-11T00:10:42.776Z,101164
2017-04-11T00:11:43.630Z,101164
2017-04-11T00:12:43.437Z,101165
2017-04-11T00:13:42.898Z,101163
2017-04-11T00:14:43.482Z,101158
2017-04-11T00:15:43.040Z,101165
2017-04-11T00:16:43.128Z,101165
2017-04-11T00:17:43.887Z,101163
2017-04-11T00:18:43.684Z,101167
2017-04-11T00:19:43.739Z,101167
2017-04-11T00:20:43.772Z,101166
2017-04-11T00:21:43.781Z,101166
2017-04-11T00:22:43.912Z,101160
2017-04-11T00:23:44.256Z,101165
2017-04-11T00:24:43.477Z,101163
2017-04-11T00:25:43.617Z,101168
2017-04-11T00:26:44.199Z,101167
2017-04-11T00:27:43.711Z,101166
2017-04-11T00:28:43.773Z,101163
2017-04-11T00:29:44.020Z,101166
2017-04-11T00:30:43.796Z,101166
2017-04-11T00:31:44.401Z,101163
2017-04-11T00:32:43.961Z,101170
2017-04-11T00:33:44.531Z,101171
2017-04-11T00:34:44.597Z,101166
2017-04-11T00:35:44.919Z,101164
2017-04-11T00:36:44.698Z,101163
2017-04-11T00:37:44.745Z,101163
2017-04-11T00:38:44.246Z,101164
2017-04-11T00:39:44.328Z,101158
2017-04-11T00:40:44.408Z,101162
2017-04-11T00:41:45.284Z,101153
2017-04-11T00:42:44.466Z,101160
2017-04-11T00:43:44.525Z,101159
2017-04-11T00:44:44.646Z,101159
2017-04-11T00:45:45.170Z,101158
2017-04-11T00:46:44.653Z,101151
2017-04-11T00:47:45.569Z,101153
2017-04-11T00:48:45.273Z,101149
2017-04-11T00:49:45.372Z,101148
2017-04-11T00:50:45.455Z,101149
2017-04-11T00:51:45.004Z,101147
2017-04-11T00:52:45.624Z,101149
2017-04-11T00:53:45.910Z,101148
2017-04-11T00:54:45.183Z,101149
2017-04-11T00:55:45.774Z,101146
2017-04-11T00:56:45.252Z,101145
2017-04-11T00:57:45.944Z,101143
2017-04-11T00:58:45.410Z,101148
2017-04-11T00:59:45.663Z,101146
2017-04-11T01:00:45.388Z,101144
2017-04-11T01:01:45.528Z,101148
2017-04-11T01:02:46.109Z,101149
2017-04-11T01:03:45.631Z,101148
2017-04-11T01:04:46.173Z,101147
2017-04-11T01:05:45.897Z,101144
2017-04-11T01:06:45.684Z,101150
2017-04-11T01:07:46.241Z,101148
2017-04-11T01:08:45.796Z,101149
2017-04-11T01:09:45.823Z,101148
2017-04-11T01:10:46.448Z,101151
2017-04-11T01:11:46.745Z,101147
2017-04-11T01:12:46.019Z,101155
2017-04-11T01:13:46.562Z,101152
2017-04-11T01:14:46.669Z,101155
2017-04-11T01:15:46.670Z,101157
2017-04-11T01:16:46.733Z,101157
2017-04-11T01:17:46.579Z,101152
2017-04-11T01:18:46.301Z,101154
2017-04-11T01:19:46.392Z,101155
2017-04-11T01:20:46.366Z,101153
2017-04-11T01:21:46.966Z,101155
2017-04-11T01:22:46.525Z,101156
2017-04-11T01:23:47.339Z,101156
2017-04-11T01:24:46.662Z,101153
2017-04-11T01:25:47.170Z,101156
2017-04-11T01:26:47.255Z,101158
2017-04-11T01:27:46.757Z,101153
2017-04-11T01:28:46.787Z,101153
2017-04-11T01:29:47.735Z,101157
2017-04-11T01:30:46.842Z,101162
2017-04-11T01:31:47.536Z,101160
2017-04-11T01:32:47.622Z,101157
2017-04-11T01:33:47.139Z,101161
2017-04-11T01:34:47.244Z,101161
2017-04-11T01:35:47.451Z,101163
2017-04-11T01:36:47.846Z,101159
2017-04-11T01:37:47.351Z,101160
2017-04-11T01:38:47.416Z,101166
2017-04-11T01:39:47.443Z,101162
2017-04-11T01:40:47.408Z,101157
2017-04-11T01:41:47.725Z,101163
2017-04-11T01:42:47.994Z,101166
2017-04-11T01:43:47.578Z,101162
2017-04-11T01:44:47.580Z,101168
2017-04-11T01:45:48.101Z,101169
2017-04-11T01:46:47.623Z,101168
2017-04-11T01:47:47.975Z,101173
2017-04-11T01:48:48.332Z,101177
2017-04-11T01:49:47.814Z,101178
2017-04-11T01:50:48.501Z,101172
2017-04-11T01:51:47.988Z,101180
2017-04-11T01:52:48.078Z,101177
2017-04-11T01:53:48.898Z,101181
2017-04-11T01:54:48.666Z,101180
2017-04-11T01:55:48.166Z,101178
2017-04-11T01:56:48.778Z,101180
2017-04-11T01:57:48.756Z,101177
2017-04-11T01:58:48.860Z,101173
2017-04-11T01:59:49.159Z,101176
2017-04-11T02:00:48.921Z,101176
2017-04-11T02:01:48.941Z,101176
2017-04-11T02:02:48.989Z,101179
2017-04-11T02:03:48.501Z,101173
2017-04-11T02:04:48.613Z,101173
2017-04-11T02:05:48.928Z,101173
2017-04-11T02:06:48.628Z,101179
2017-04-11T02:07:49.161Z,101174
2017-04-11T02:08:49.216Z,101176
2017-04-11T02:09:49.297Z,101176
2017-04-11T02:10:48.857Z,101177
2017-04-11T02:11:49.124Z,101183
2017-04-11T02:12:48.921Z,101179
2017-04-11T02:13:49.021Z,101176
2017-04-11T02:14:49.066Z,101174
2017-04-11T02:15:49.617Z,101175
2017-04-11T02:16:49.655Z,101177
2017-04-11T02:17:49.404Z,101176
2017-04-11T02:18:49.208Z,101172
2017-04-11T02:19:49.787Z,101176
2017-04-11T02:20:49.822Z,101178
2017-04-11T02:21:49.356Z,101175
2017-04-11T02:22:49.968Z,101178
2017-04-11T02:23:49.722Z,101181
2017-04-11T02:24:50.045Z,101183
2017-04-11T02:25:50.074Z,101176
2017-04-11T02:26:50.072Z,101179
2017-04-11T02:27:50.100Z,101179
2017-04-11T02:28:49.678Z,101181
2017-04-11T02:29:50.021Z,101178
2017-04-11T02:30:49.682Z,101172
2017-04-11T02:31:49.785Z,101179
2017-04-11T02:32:50.341Z,101175
2017-04-11T02:33:50.423Z,101184
2017-04-11T02:34:50.494Z,101181
2017-04-11T02:35:50.876Z,101184
2017-04-11T02:36:50.639Z,101188
2017-04-11T02:37:50.116Z,101188
2017-04-11T02:38:50.146Z,101188
2017-04-11T02:39:50.748Z,101187
2017-04-11T02:40:50.835Z,101185
2017-04-11T02:41:50.659Z,101185
2017-04-11T02:42:50.428Z,101184
2017-04-11T02:43:51.041Z,101182
2017-04-11T02:44:50.532Z,101177
2017-04-11T02:45:50.493Z,101181
2017-04-11T02:46:50.564Z,101181
2017-04-11T02:47:50.886Z,101184
2017-04-11T02:48:51.182Z,101184
2017-04-11T02:49:51.263Z,101185
2017-04-11T02:50:51.295Z,101186
2017-04-11T02:51:50.797Z,101185
2017-04-11T02:52:51.437Z,101185
2017-04-11T02:53:51.744Z,101186
2017-04-11T02:54:51.509Z,101189
2017-04-11T02:55:51.575Z,101184
2017-04-11T02:56:51.625Z,101186
2017-04-11T02:57:51.129Z,101185
2017-04-11T02:58:51.157Z,101185
2017-04-11T02:59:52.022Z,101185
2017-04-11T03:00:51.772Z,101183
2017-04-11T03:01:51.803Z,101188
2017-04-11T03:02:51.389Z,101184
2017-04-11T03:03:51.383Z,101187
2017-04-11T03:04:52.029Z,101188
2017-04-11T03:05:52.392Z,101192
2017-04-11T03:06:52.123Z,101184
2017-04-11T03:07:51.604Z,101190
2017-04-11T03:08:52.149Z,101190
2017-04-11T03:09:52.189Z,101185
2017-04-11T03:10:52.187Z,101190
2017-04-11T03:11:52.531Z,101194
2017-04-11T03:12:51.757Z,101185
2017-04-11T03:13:52.319Z,101191
2017-04-11T03:14:52.324Z,101192
2017-04-11T03:15:51.883Z,101196
2017-04-11T03:16:51.877Z,101192
2017-04-11T03:17:52.759Z,101194
2017-04-11T03:18:52.492Z,101194
2017-04-11T03:19:52.589Z,101192
2017-04-11T03:20:52.141Z,101193
2017-04-11T03:21:52.710Z,101190
2017-04-11T03:22:52.317Z,101185
2017-04-11T03:23:52.664Z,101184
2017-04-11T03:24:52.899Z,101187
2017-04-11T03:25:52.926Z,101185
2017-04-11T03:26:52.436Z,101183
2017-04-11T03:27:52.584Z,101189
2017-04-11T03:28:53.218Z,101184
2017-04-11T03:29:53.500Z,101184
2017-04-11T03:30:53.287Z,101184
2017-04-11T03:31:52.799Z,101193
2017-04-11T03:32:52.915Z,101193
2017-04-11T03:33:53.006Z,101194
2017-04-11T03:34:53.578Z,101192
2017-04-11T03:35:53.348Z,101196
2017-04-11T03:36:53.178Z,101198
2017-04-11T03:37:53.182Z,101196
2017-04-11T03:38:53.727Z,101200
2017-04-11T03:39:53.804Z,101196
2017-04-11T03:40:53.294Z,101202
2017-04-11T03:41:54.157Z,101201
2017-04-11T03:42:53.389Z,101194
2017-04-11T03:43:53.995Z,101199
2017-04-11T03:44:53.556Z,101201
2017-04-11T03:45:54.050Z,101198
2017-04-11T03:46:54.082Z,101207
2017-04-11T03:47:53.932Z,101208
2017-04-11T03:48:54.193Z,101205
2017-04-11T03:49:53.667Z,101206
2017-04-11T03:50:53.737Z,101207
2017-04-11T03:51:54.293Z,101200
2017-04-11T03:52:54.324Z,101211
2017-04-11T03:53:54.102Z,101209
2017-04-11T03:54:53.816Z,101212
2017-04-11T03:55:53.899Z,101213
2017-04-11T03:56:54.427Z,101215
2017-04-11T03:57:53.906Z,101214
2017-04-11T03:58:54.006Z,101210
2017-04-11T03:59:54.882Z,101214
2017-04-11T04:00:54.699Z,101213
2017-04-11T04:01:54.747Z,101216
2017-04-11T04:02:54.247Z,101220
2017-04-11T04:03:54.807Z,101214
2017-04-11T04:04:54.306Z,101220
2017-04-11T04:05:54.668Z,101216
2017-04-11T04:06:54.422Z,101222
2017-04-11T04:07:54.559Z,101221
2017-04-11T04:08:54.612Z,101226
2017-04-11T04:09:54.726Z,101227
2017-04-11T04:10:55.259Z,101230
2017-04-11T04:11:55.582Z,101226
2017-04-11T04:12:54.918Z,101232
2017-04-11T04:13:55.467Z,101231
2017-04-11T04:14:55.495Z,101233
2017-04-11T04:15:55.467Z,101234
2017-04-11T04:16:55.511Z,101230
2017-04-11T04:17:55.360Z,101236
2017-04-11T04:18:55.674Z,101236
2017-04-11T04:19:55.220Z,101237
2017-04-11T04:20:55.813Z,101235
2017-04-11T04:21:55.867Z,101237
2017-04-11T04:22:55.906Z,101240
2017-04-11T04:23:55.666Z,101240
2017-04-11T04:24:56.011Z,101237
2017-04-11T04:25:55.510Z,101237
2017-04-11T04:26:56.089Z,101240
2017-04-11T04:27:55.595Z,101240
2017-04-11T04:28:56.200Z,101242
2017-04-11T04:29:55.972Z,101235
2017-04-11T04:30:55.849Z,101242
2017-04-11T04:31:55.916Z,101239
2017-04-11T04:32:56.409Z,101240
2017-04-11T04:33:56.485Z,101242
2017-04-11T04:34:55.942Z,101239
2017-04-11T04:35:56.345Z,101242
2017-04-11T04:36:56.598Z,101248
2017-04-11T04:37:56.565Z,101239
2017-04-11T04:38:56.105Z,101247
2017-04-11T04:39:56.086Z,101247
2017-04-11T04:40:56.172Z,101245
2017-04-11T04:41:56.982Z,101259
2017-04-11T04:42:56.772Z,101254
2017-04-11T04:43:56.805Z,101250
2017-04-11T04:44:56.854Z,101257
2017-04-11T04:45:56.900Z,101256
2017-04-11T04:46:56.425Z,101257
2017-04-11T04:47:57.298Z,101264
2017-04-11T04:48:56.501Z,101265
2017-04-11T04:49:56.597Z,101265
2017-04-11T04:50:57.162Z,101261
2017-04-11T04:51:56.721Z,101267
2017-04-11T04:52:56.756Z,101264
2017-04-11T04:53:57.550Z,101274
2017-04-11T04:54:56.817Z,101270
2017-04-11T04:55:56.943Z,101267
2017-04-11T04:56:57.479Z,101270
2017-04-11T04:57:57.038Z,101269
2017-04-11T04:58:57.003Z,101267
2017-04-11T04:59:57.438Z,101267
2017-04-11T05:00:57.112Z,101273
2017-04-11T05:01:57.172Z,101272
2017-04-11T05:02:57.769Z,101270
2017-04-11T05:03:57.835Z,101272
2017-04-11T05:04:57.317Z,101268
2017-04-11T05:05:58.176Z,101279
2017-04-11T05:06:57.861Z,101280
2017-04-11T05:07:57.370Z,101282
2017-04-11T05:08:57.983Z,101284
2017-04-11T05:09:58.072Z,101282
2017-04-11T05:10:57.596Z,101284
2017-04-11T05:11:57.944Z,101283
2017-04-11T05:12:57.785Z,101285
2017-04-11T05:13:57.762Z,101291
2017-04-11T05:14:58.336Z,101289
2017-04-11T05:15:57.830Z,101293
2017-04-11T05:16:58.404Z,101294
2017-04-11T05:17:58.247Z,101292
2017-04-11T05:18:57.995Z,101290
2017-04-11T05:19:58.535Z,101290
2017-04-11T05:20:58.569Z,101289
2017-04-11T05:21:58.650Z,101293
2017-04-11T05:22:58.742Z,101293
2017-04-11T05:23:58.599Z,101298
2017-04-11T05:24:58.301Z,101301
2017-04-11T05:25:58.315Z,101304
2017-04-11T05:26:58.989Z,101303
2017-04-11T05:27:59.025Z,101302
2017-04-11T05:28:59.127Z,101295
2017-04-11T05:29:59.535Z,101304
2017-04-11T05:30:58.683Z,101308
2017-04-11T05:31:58.800Z,101308
2017-04-11T05:32:59.347Z,101307
2017-04-11T05:33:58.837Z,101312
2017-04-11T05:34:59.410Z,101309
2017-04-11T05:35:59.936Z,101312
2017-04-11T05:36:59.531Z,101308
2017-04-11T05:37:59.038Z,101318
2017-04-11T05:38:59.059Z,101309
2017-04-11T05:39:59.649Z,101316
2017-04-11T05:40:59.692Z,101317
2017-04-11T05:42:00.004Z,101316
2017-04-11T05:42:59.264Z,101317
2017-04-11T05:43:59.830Z,101316
2017-04-11T05:44:59.899Z,101318
2017-04-11T05:45:59.364Z,101322
2017-04-11T05:47:00.001Z,101324
2017-04-11T05:47:59.761Z,101320
2017-04-11T05:49:00.028Z,101326
2017-04-11T05:49:59.530Z,101327
2017-04-11T05:50:59.602Z,101327
2017-04-11T05:52:00.298Z,101325
2017-04-11T05:53:00.345Z,101323
2017-04-11T05:54:00.230Z,101332
2017-04-11T05:54:59.922Z,101336
2017-04-11T05:55:59.981Z,101335
2017-04-11T05:57:00.039Z,101335
2017-04-11T05:58:00.654Z,101342
2017-04-11T05:59:00.267Z,101343
2017-04-11T06:00:01.028Z,101343
2017-04-11T06:01:00.743Z,101345
2017-04-11T06:02:00.783Z,101345
2017-04-11T06:03:00.274Z,101345
2017-04-11T06:04:00.431Z,101347
2017-04-11T06:05:00.401Z,101342
2017-04-11T06:06:00.698Z,101351
2017-04-11T06:07:01.046Z,101352
2017-04-11T06:08:00.608Z,101349
2017-04-11T06:09:00.681Z,101347
2017-04-11T06:10:01.239Z,101350
2017-04-11T06:11:01.323Z,101356
2017-04-11T06:12:02.194Z,101356
2017-04-11T06:13:00.815Z,101355
2017-04-11T06:14:01.429Z,101358
2017-04-11T06:15:01.472Z,101359
2017-04-11T06:16:01.466Z,101352
2017-04-11T06:17:01.538Z,101361
2017-04-11T06:18:01.381Z,101362
2017-04-11T06:19:01.643Z,101365
2017-04-11T06:20:01.717Z,101366
2017-04-11T06:21:01.787Z,101356
2017-04-11T06:22:01.293Z,101366
2017-04-11T06:23:02.072Z,101367
2017-04-11T06:24:02.732Z,101373
2017-04-11T06:25:03.030Z,101372
2017-04-11T06:26:01.523Z,101371
2017-04-11T06:27:01.597Z,101375
2017-04-11T06:28:01.577Z,101372
2017-04-11T06:29:02.204Z,101367
2017-04-11T06:30:02.004Z,101373
2017-04-11T06:31:03.581Z,101371
2017-04-11T06:32:03.030Z,101369
2017-04-11T06:33:03.862Z,101371
2017-04-11T06:34:03.314Z,101367
2017-04-11T06:35:03.993Z,101374
2017-04-11T06:36:04.049Z,101371
2017-04-11T06:37:02.788Z,101374
2017-04-11T06:38:03.607Z,101371
2017-04-11T06:39:03.030Z,101372
2017-04-11T06:40:02.979Z,101376
2017-04-11T06:41:02.390Z,101373
2017-04-11T06:42:03.828Z,101377
2017-04-11T06:43:03.340Z,101377
2017-04-11T06:44:03.799Z,101373
2017-04-11T06:45:02.713Z,101373
2017-04-11T06:46:03.481Z,101364
2017-04-11T06:47:03.703Z,101373
2017-04-11T06:48:03.843Z,101365
2017-04-11T06:49:05.058Z,101373
2017-04-11T06:50:03.610Z,101378
2017-04-11T06:51:04.229Z,101373
2017-04-11T06:52:03.129Z,101377
2017-04-11T06:53:03.392Z,101376
2017-04-11T06:54:03.809Z,101377
2017-04-11T06:55:03.789Z,101373
2017-04-11T06:56:03.801Z,101376
2017-04-11T06:57:03.942Z,101376
2017-04-11T06:58:03.888Z,101374
2017-04-11T06:59:04.247Z,101373
2017-04-11T07:00:03.504Z,101370
2017-04-11T07:01:04.103Z,101367
2017-04-11T07:02:04.795Z,101366
2017-04-11T07:03:04.186Z,101366
2017-04-11T07:04:04.252Z,101367
2017-04-11T07:05:04.520Z,101364
2017-04-11T07:06:03.756Z,101365
2017-04-11T07:07:03.753Z,101366
2017-04-11T07:08:03.784Z,101364
2017-04-11T07:09:04.359Z,101365
2017-04-11T07:10:03.856Z,101358
2017-04-11T07:11:04.181Z,101358
2017-04-11T07:12:03.983Z,101362
2017-04-11T07:13:04.616Z,101366
2017-04-11T07:14:04.880Z,101370
2017-04-11T07:15:04.763Z,101378
2017-04-11T07:16:04.236Z,101375
2017-04-11T07:17:05.113Z,101374
2017-04-11T07:18:04.841Z,101377
2017-04-11T07:19:04.351Z,101374
2017-04-11T07:20:05.010Z,101377
2017-04-11T07:21:04.461Z,101367
2017-04-11T07:22:04.512Z,101377
2017-04-11T07:23:06.513Z,101377
2017-04-11T07:24:05.938Z,101369
2017-04-11T07:25:07.293Z,101374
2017-04-11T07:26:06.990Z,101377
2017-04-11T07:27:05.377Z,101379
2017-04-11T07:28:05.502Z,101375
2017-04-11T07:29:06.245Z,101374
2017-04-11T07:30:05.589Z,101379
2017-04-11T07:31:04.875Z,101371
2017-04-11T07:32:05.567Z,101372
2017-04-11T07:33:06.281Z,101372
2017-04-11T07:34:05.699Z,101368
2017-04-11T07:35:06.039Z,101370
2017-04-11T07:36:06.612Z,101370
2017-04-11T07:37:05.800Z,101371
2017-04-11T07:40:42.899Z,101371
2017-04-11T07:41:42.513Z,101373
2017-04-11T07:42:42.577Z,101372
2017-04-11T07:43:42.729Z,101372
2017-04-11T07:44:43.309Z,101373
2017-04-11T07:45:44.882Z,101379
2017-04-11T07:46:43.033Z,101373
2017-04-11T07:47:42.859Z,101370
2017-04-11T07:48:42.996Z,101371
2017-04-11T07:49:43.618Z,101373
2017-04-11T07:50:44.406Z,101374
2017-04-11T07:51:43.710Z,101375
2017-04-11T07:52:43.551Z,101371
2017-04-11T07:53:43.376Z,101370
2017-04-11T07:54:43.894Z,101370
2017-04-11T07:55:43.380Z,101367
2017-04-11T07:56:43.941Z,101369
2017-04-11T07:57:43.417Z,101363
2017-04-11T07:58:43.745Z,101372
2017-04-11T07:59:45.271Z,101364
2017-04-11T08:00:44.101Z,101365
2017-04-11T08:01:44.849Z,101360
2017-04-11T08:02:44.441Z,101370
2017-04-11T08:03:43.801Z,101365
2017-04-11T08:04:45.426Z,101368
2017-04-11T08:05:45.125Z,101365
2017-04-11T08:06:44.598Z,101365
2017-04-11T08:07:44.851Z,101380
2017-04-11T08:08:44.064Z,101364
2017-04-11T08:09:46.129Z,101373
2017-04-11T08:10:45.494Z,101366
2017-04-11T08:11:44.099Z,101369
2017-04-11T08:12:45.291Z,101362
2017-04-11T08:13:44.219Z,101362
2017-04-11T08:14:45.410Z,101361
2017-04-11T08:15:45.541Z,101362
2017-04-11T08:16:46.101Z,101359
2017-04-11T08:17:44.491Z,101362
2017-04-11T08:18:45.877Z,101365
2017-04-11T08:19:45.886Z,101366
2017-04-11T08:20:45.981Z,101367
2017-04-11T08:21:46.073Z,101373
2017-04-11T08:22:45.782Z,101375
2017-04-11T08:23:48.158Z,101375
2017-04-11T08:24:46.918Z,101376
2017-04-11T08:25:45.405Z,101377
2017-04-11T08:26:46.248Z,101377
2017-04-11T08:27:45.560Z,101377
2017-04-11T08:28:46.417Z,101382
2017-04-11T08:29:46.165Z,101382
2017-04-11T08:30:47.274Z,101382
2017-04-11T08:31:47.500Z,101381
2017-04-11T08:32:46.298Z,101391
2017-04-11T08:33:47.636Z,101390
2017-04-11T08:34:50.540Z,101392
2017-04-11T08:35:46.363Z,101392
2017-04-11T08:36:45.839Z,101388
2017-04-11T08:37:45.879Z,101382
2017-04-11T08:38:47.724Z,101378
2017-04-11T08:39:46.461Z,101385
2017-04-11T08:40:46.969Z,101389
2017-04-11T08:41:46.248Z,101387
2017-04-11T08:42:46.290Z,101394
2017-04-11T08:43:46.269Z,101390
2017-04-11T08:44:45.773Z,101386
2017-04-11T08:45:48.424Z,101390
2017-04-11T08:46:46.724Z,101393
2017-04-11T08:47:46.457Z,101394
2017-04-11T08:48:45.986Z,101394
2017-04-11T08:49:47.862Z,101393
2017-04-11T08:50:46.515Z,101396
2017-04-11T08:51:47.699Z,101400
2017-04-11T08:52:46.956Z,101396
2017-04-11T08:53:46.210Z,101391
2017-04-11T08:54:47.374Z,101392
2017-04-11T08:55:46.232Z,101394
2017-04-11T08:56:48.720Z,101396
2017-04-11T08:57:47.062Z,101390
2017-04-11T08:58:49.738Z,101392
2017-04-11T08:59:48.430Z,101390
2017-04-11T09:00:47.144Z,101393
2017-04-11T09:01:47.761Z,101392
2017-04-11T09:02:47.152Z,101384
2017-04-11T09:03:48.936Z,101390
2017-04-11T09:04:47.486Z,101392
2017-04-11T09:05:47.278Z,101391
2017-04-11T09:06:46.838Z,101391
2017-04-11T09:07:46.881Z,101394
2017-04-11T09:08:47.523Z,101387
2017-04-11T09:09:47.563Z,101392
2017-04-11T09:10:47.856Z,101395
2017-04-11T09:11:47.577Z,101395
2017-04-11T09:12:47.633Z,101394
2017-04-11T09:13:47.926Z,101400
2017-04-11T09:14:47.253Z,101399
2017-04-11T09:15:47.314Z,101399
2017-04-11T09:17:50.651Z,101403
2017-04-11T09:18:49.201Z,101401
2017-04-11T09:19:48.894Z,101403
2017-04-11T09:20:48.762Z,101406
2017-04-11T09:21:49.281Z,101409
2017-04-11T09:22:49.250Z,101409
2017-04-11T09:23:49.046Z,101408
2017-04-11T09:24:48.800Z,101405
2017-04-11T09:25:49.472Z,101408
2017-04-11T09:26:48.951Z,101412
2017-04-11T09:27:49.500Z,101416
2017-04-11T09:28:49.590Z,101414
2017-04-11T09:29:49.880Z,101409
2017-04-11T09:30:49.042Z,101411
2017-04-11T09:31:49.708Z,101413
2017-04-11T09:32:49.814Z,101415
2017-04-11T09:33:49.804Z,101415
2017-04-11T09:34:49.303Z,101417
2017-04-11T09:35:50.001Z,101417
2017-04-11T09:36:49.271Z,101415
2017-04-11T09:37:49.880Z,101416
2017-04-11T09:38:50.041Z,101412
2017-04-11T09:39:50.129Z,101418
2017-04-11T09:40:49.532Z,101412
2017-04-11T09:41:49.862Z,101416
2017-04-11T09:42:49.564Z,101414
2017-04-11T09:43:49.690Z,101414
2017-04-11T09:44:50.346Z,101410
2017-04-11T09:45:49.858Z,101418
2017-04-11T09:46:49.895Z,101415
2017-04-11T09:47:50.983Z,101417
2017-04-11T09:48:51.677Z,101409
2017-04-11T09:49:51.116Z,101411
2017-04-11T09:50:50.192Z,101408
2017-04-11T09:51:51.474Z,101405
2017-04-11T09:52:50.632Z,101411
2017-04-11T09:53:54.633Z,101415
2017-04-11T09:54:50.982Z,101415
2017-04-11T09:55:52.925Z,101408
2017-04-11T09:56:51.871Z,101413
2017-04-11T09:57:52.435Z,101409
2017-04-11T09:58:50.907Z,101411
2017-04-11T09:59:52.039Z,101408
2017-04-11T10:00:51.266Z,101410
2017-04-11T10:01:52.033Z,101408
2017-04-11T10:02:53.228Z,101406
2017-04-11T10:03:52.659Z,101412
2017-04-11T10:04:52.828Z,101406
2017-04-11T10:05:53.183Z,101416
2017-04-11T10:06:51.178Z,101414
2017-04-11T10:07:51.859Z,101418
2017-04-11T10:08:51.457Z,101423
2017-04-11T10:09:51.680Z,101420
2017-04-11T10:10:53.962Z,101416
2017-04-11T10:11:52.642Z,101412
2017-04-11T10:12:53.307Z,101415
2017-04-11T10:13:55.472Z,101416
2017-04-11T10:14:53.684Z,101414
2017-04-11T10:15:51.734Z,101415
2017-04-11T10:16:53.138Z,101411
2017-04-11T10:17:53.508Z,101415
2017-04-11T10:18:52.013Z,101414
2017-04-11T10:19:53.267Z,101418
2017-04-11T10:20:52.076Z,101418
2017-04-11T10:21:52.796Z,101418
2017-04-11T10:22:53.470Z,101414
2017-04-11T10:23:53.309Z,101421
2017-04-11T10:24:54.104Z,101420
2017-04-11T10:25:52.559Z,101420
2017-04-11T10:26:53.172Z,101411
2017-04-11T10:27:53.627Z,101411
2017-04-11T10:28:53.058Z,101413
2017-04-11T10:29:52.976Z,101411
2017-04-11T10:30:53.082Z,101403
2017-04-11T10:31:53.279Z,101406
2017-04-11T10:32:52.765Z,101414
2017-04-11T10:33:53.596Z,101411
2017-04-11T10:34:55.453Z,101411
2017-04-11T10:35:54.284Z,101405
2017-04-11T10:36:54.788Z,101407
2017-04-11T10:37:51.956Z,101398
2017-04-11T10:38:53.119Z,101404
2017-04-11T10:39:52.542Z,101404
2017-04-11T10:40:52.671Z,101405
2017-04-11T10:41:52.687Z,101402
2017-04-11T10:42:52.719Z,101408
2017-04-11T10:43:52.784Z,101404
2017-04-11T10:44:53.629Z,101399
2017-04-11T10:45:52.307Z,101407
2017-04-11T10:46:52.587Z,101410
2017-04-11T10:47:52.311Z,101410
2017-04-11T10:48:57.015Z,101406
2017-04-11T10:49:53.178Z,101412
2017-04-11T10:50:52.981Z,101410
2017-04-11T10:51:52.489Z,101407
2017-04-11T10:52:52.580Z,101399
2017-04-11T10:53:53.256Z,101395
2017-04-11T10:54:54.926Z,101384
2017-04-11T10:55:55.635Z,101384
2017-04-11T10:56:53.578Z,101375
2017-04-11T10:57:53.401Z,101386
2017-04-11T10:58:53.144Z,101385
2017-04-11T10:59:53.442Z,101389
2017-04-11T11:00:54.216Z,101381
2017-04-11T11:01:52.954Z,101378
2017-04-11T11:02:53.545Z,101378
2017-04-11T11:03:54.069Z,101371
2017-04-11T11:04:53.904Z,101373
2017-04-11T11:05:54.832Z,101375
2017-04-11T11:06:53.641Z,101374
2017-04-11T11:07:53.054Z,101376
2017-04-11T11:08:53.706Z,101375
2017-04-11T11:09:53.184Z,101368
2017-04-11T11:10:55.831Z,101370
2017-04-11T11:11:53.527Z,101369
2017-04-11T11:12:53.978Z,101364
2017-04-11T11:13:53.488Z,101373
2017-04-11T11:14:54.668Z,101371
2017-04-11T11:15:54.061Z,101378
2017-04-11T11:16:53.848Z,101379
2017-04-11T11:17:54.434Z,101371
2017-04-11T11:18:54.286Z,101374
2017-04-11T11:19:54.450Z,101377
2017-04-11T11:20:54.538Z,101372
2017-04-11T11:21:54.550Z,101367
2017-04-11T11:22:54.893Z,101368
2017-04-11T11:23:55.238Z,101369
2017-04-11T11:24:55.342Z,101373
2017-04-11T11:25:54.207Z,101373
2017-04-11T11:26:54.805Z,101374
2017-04-11T11:27:54.353Z,101376
2017-04-11T11:28:55.318Z,101382
2017-04-11T11:29:54.398Z,101372
2017-04-11T11:30:55.086Z,101369
2017-04-11T11:31:54.653Z,101363
2017-04-11T11:32:54.585Z,101364
2017-04-11T11:33:55.214Z,101363
2017-04-11T11:34:54.987Z,101358
2017-04-11T11:35:54.766Z,101352
2017-04-11T11:36:55.300Z,101345
2017-04-11T11:37:54.882Z,101339
2017-04-11T11:38:55.553Z,101335
2017-04-11T11:39:55.015Z,101334
2017-04-11T11:40:55.354Z,101338
2017-04-11T11:41:55.630Z,101341
2017-04-11T11:42:55.056Z,101338
2017-04-11T11:43:55.774Z,101321
2017-04-11T11:44:57.808Z,101329
2017-04-11T11:45:55.857Z,101331
2017-04-11T11:46:56.196Z,101328
2017-04-11T11:47:56.436Z,101327
2017-04-11T11:48:56.640Z,101327
2017-04-11T11:49:58.653Z,101328
2017-04-11T11:50:56.746Z,101311
2017-04-11T11:51:56.740Z,101328
2017-04-11T11:52:55.853Z,101331
2017-04-11T11:53:57.006Z,101326
2017-04-11T11:54:56.164Z,101332
2017-04-11T11:55:56.290Z,101332
2017-04-11T11:56:58.458Z,101329
2017-04-11T11:57:57.042Z,101331
2017-04-11T11:58:56.597Z,101327
2017-04-11T11:59:55.841Z,101330
2017-04-11T12:00:55.842Z,101317
2017-04-11T12:01:55.912Z,101315
2017-04-11T12:02:55.942Z,101328
2017-04-11T12:03:56.557Z,101309
2017-04-11T12:04:56.985Z,101315
2017-04-11T12:05:56.614Z,101312
2017-04-11T12:06:56.201Z,101312
2017-04-11T12:07:56.267Z,101316
2017-04-11T12:08:56.863Z,101310
2017-04-11T12:09:57.713Z,101308
2017-04-11T12:10:58.029Z,101311
2017-04-11T12:11:57.833Z,101307
2017-04-11T12:12:57.155Z,101314
2017-04-11T12:13:58.528Z,101306
2017-04-11T12:14:57.313Z,101315
2017-04-11T12:15:57.379Z,101314
2017-04-11T12:16:58.273Z,101317
2017-04-11T12:17:58.271Z,101318
2017-04-11T12:18:57.453Z,101320
2017-04-11T12:19:57.624Z,101311
2017-04-11T12:20:57.472Z,101312
2017-04-11T12:21:57.654Z,101312
2017-04-11T12:22:58.019Z,101308
2017-04-11T12:23:57.066Z,101308
2017-04-11T12:24:57.153Z,101295
2017-04-11T12:25:57.771Z,101298
2017-04-11T12:26:57.819Z,101295
2017-04-11T12:27:57.843Z,101296
2017-04-11T12:28:58.825Z,101299
2017-04-11T12:29:58.209Z,101298
2017-04-11T12:31:01.415Z,101298
2017-04-11T12:31:58.192Z,101302
2017-04-11T12:33:00.677Z,101291